sensor_id;sensor_type;location;lat;lon;timestamp;P1;durP1;ratioP1;P2;durP2;ratioP2
76591;SDS011;65481;47.600;19.682;2023-04-12T00:02:53;4.55;;;3.28;;
76591;SDS011;65481;47.600;19.682;2023-04-12T00:07:54;5.90;;;3.30;;
76591;SDS011;65481;47.600;19.682;2023-04-12T00:12:54;4.78;;;3.30;;
76591;SDS011;65481;47.600;19.682;2023-04-12T00:17:55;6.60;;;3.38;;
76591;SDS011;65481;47.600;19.682;2023-04-12T00:22:56;5.43;;;3.58;;
76591;SDS011;65481;47.600;19.682;2023-04-12T00:27:56;5.90;;;3.20;;
76591;SDS011;65481;47.600;19.682;2023-04-12T00:32:57;5.10;;;3.30;;
76591;SDS011;65481;47.600;19.682;2023-04-12T00:37:58;3.88;;;2.72;;
76591;SDS011;65481;47.600;19.682;2023-04-12T00:42:59;4.18;;;3.00;;
76591;SDS011;65481;47.600;19.682;2023-04-12T00:47:59;6.40;;;3.08;;
76591;SDS011;65481;47.600;19.682;2023-04-12T00:53:01;5.25;;;3.40;;
76591;SDS011;65481;47.600;19.682;2023-04-12T00:58:03;4.78;;;3.38;;
76591;SDS011;65481;47.600;19.682;2023-04-12T01:03:04;5.30;;;3.20;;
76591;SDS011;65481;47.600;19.682;2023-04-12T01:08:24;5.60;;;3.47;;
76591;SDS011;65481;47.600;19.682;2023-04-12T01:13:44;3.80;;;2.90;;
76591;SDS011;65481;47.600;19.682;2023-04-12T01:18:52;4.82;;;3.10;;
76591;SDS011;65481;47.600;19.682;2023-04-12T01:25:02;4.23;;;3.23;;
76591;SDS011;65481;47.600;19.682;2023-04-12T01:29:31;4.95;;;3.22;;
76591;SDS011;65481;47.600;19.682;2023-04-12T01:34:32;5.32;;;3.50;;
76591;SDS011;65481;47.600;19.682;2023-04-12T01:39:34;4.32;;;3.83;;
76591;SDS011;65481;47.600;19.682;2023-04-12T01:44:35;4.68;;;3.05;;
76591;SDS011;65481;47.600;19.682;2023-04-12T01:49:38;4.57;;;3.00;;
76591;SDS011;65481;47.600;19.682;2023-04-12T01:54:49;4.82;;;3.35;;
76591;SDS011;65481;47.600;19.682;2023-04-12T01:59:54;7.57;;;3.60;;
76591;SDS011;65481;47.600;19.682;2023-04-12T02:04:57;4.55;;;3.30;;
76591;SDS011;65481;47.600;19.682;2023-04-12T02:10:00;6.22;;;3.60;;
76591;SDS011;65481;47.600;19.682;2023-04-12T02:15:00;7.90;;;3.45;;
76591;SDS011;65481;47.600;19.682;2023-04-12T02:20:02;4.25;;;3.40;;
76591;SDS011;65481;47.600;19.682;2023-04-12T02:25:06;6.13;;;3.22;;
76591;SDS011;65481;47.600;19.682;2023-04-12T02:30:07;3.92;;;3.20;;
76591;SDS011;65481;47.600;19.682;2023-04-12T02:35:09;4.32;;;3.40;;
76591;SDS011;65481;47.600;19.682;2023-04-12T02:40:11;7.18;;;3.55;;
76591;SDS011;65481;47.600;19.682;2023-04-12T02:45:14;4.78;;;3.22;;
76591;SDS011;65481;47.600;19.682;2023-04-12T02:50:15;7.28;;;3.83;;
76591;SDS011;65481;47.600;19.682;2023-04-12T02:55:15;6.28;;;3.40;;
76591;SDS011;65481;47.600;19.682;2023-04-12T03:00:16;4.63;;;3.35;;
76591;SDS011;65481;47.600;19.682;2023-04-12T03:05:37;4.28;;;3.15;;
76591;SDS011;65481;47.600;19.682;2023-04-12T03:10:39;4.47;;;3.58;;
76591;SDS011;65481;47.600;19.682;2023-04-12T03:15:40;5.15;;;3.67;;
76591;SDS011;65481;47.600;19.682;2023-04-12T03:20:42;5.28;;;3.45;;
76591;SDS011;65481;47.600;19.682;2023-04-12T03:25:43;4.50;;;3.17;;
76591;SDS011;65481;47.600;19.682;2023-04-12T03:30:43;5.97;;;3.50;;
76591;SDS011;65481;47.600;19.682;2023-04-12T03:35:44;5.00;;;3.78;;
76591;SDS011;65481;47.600;19.682;2023-04-12T03:40:45;5.03;;;3.47;;
76591;SDS011;65481;47.600;19.682;2023-04-12T03:45:45;5.18;;;2.90;;
76591;SDS011;65481;47.600;19.682;2023-04-12T03:50:46;6.25;;;3.58;;
76591;SDS011;65481;47.600;19.682;2023-04-12T03:55:47;6.25;;;3.92;;
76591;SDS011;65481;47.600;19.682;2023-04-12T04:00:47;5.15;;;4.10;;
76591;SDS011;65481;47.600;19.682;2023-04-12T04:05:48;6.13;;;3.67;;
76591;SDS011;65481;47.600;19.682;2023-04-12T04:10:49;6.47;;;4.75;;
76591;SDS011;65481;47.600;19.682;2023-04-12T04:15:50;5.38;;;3.63;;
76591;SDS011;65481;47.600;19.682;2023-04-12T04:20:56;9.15;;;5.28;;
76591;SDS011;65481;47.600;19.682;2023-04-12T04:25:57;11.60;;;6.40;;
76591;SDS011;65481;47.600;19.682;2023-04-12T04:30:59;5.55;;;4.00;;
76591;SDS011;65481;47.600;19.682;2023-04-12T04:36:05;6.75;;;4.57;;
76591;SDS011;65481;47.600;19.682;2023-04-12T04:41:08;5.53;;;4.40;;
76591;SDS011;65481;47.600;19.682;2023-04-12T04:46:09;10.80;;;4.97;;
76591;SDS011;65481;47.600;19.682;2023-04-12T04:51:09;6.93;;;4.82;;
76591;SDS011;65481;47.600;19.682;2023-04-12T04:56:10;8.02;;;4.82;;
76591;SDS011;65481;47.600;19.682;2023-04-12T05:01:10;10.38;;;5.43;;
76591;SDS011;65481;47.600;19.682;2023-04-12T05:06:12;9.05;;;5.25;;
76591;SDS011;65481;47.600;19.682;2023-04-12T05:11:13;9.45;;;5.13;;
76591;SDS011;65481;47.600;19.682;2023-04-12T05:16:13;8.05;;;5.60;;
76591;SDS011;65481;47.600;19.682;2023-04-12T05:21:14;8.43;;;5.78;;
76591;SDS011;65481;47.600;19.682;2023-04-12T05:26:15;7.47;;;4.65;;
76591;SDS011;65481;47.600;19.682;2023-04-12T05:31:16;7.80;;;6.13;;
76591;SDS011;65481;47.600;19.682;2023-04-12T05:36:17;6.38;;;4.72;;
76591;SDS011;65481;47.600;19.682;2023-04-12T05:41:17;10.07;;;6.07;;
76591;SDS011;65481;47.600;19.682;2023-04-12T05:46:18;6.25;;;4.25;;
76591;SDS011;65481;47.600;19.682;2023-04-12T05:51:18;6.35;;;4.88;;
76591;SDS011;65481;47.600;19.682;2023-04-12T05:56:19;4.85;;;3.40;;
76591;SDS011;65481;47.600;19.682;2023-04-12T06:01:19;5.53;;;3.38;;
76591;SDS011;65481;47.600;19.682;2023-04-12T06:06:20;4.88;;;2.70;;
76591;SDS011;65481;47.600;19.682;2023-04-12T06:11:20;3.08;;;2.60;;
76591;SDS011;65481;47.600;19.682;2023-04-12T06:16:21;4.72;;;2.65;;
76591;SDS011;65481;47.600;19.682;2023-04-12T06:21:21;3.92;;;3.17;;
76591;SDS011;65481;47.600;19.682;2023-04-12T06:26:23;3.58;;;2.70;;
76591;SDS011;65481;47.600;19.682;2023-04-12T06:31:23;4.97;;;2.75;;
76591;SDS011;65481;47.600;19.682;2023-04-12T06:36:24;21.38;;;8.68;;
76591;SDS011;65481;47.600;19.682;2023-04-12T06:41:25;5.53;;;3.95;;
76591;SDS011;65481;47.600;19.682;2023-04-12T06:46:25;3.70;;;2.70;;
76591;SDS011;65481;47.600;19.682;2023-04-12T06:51:26;2.80;;;2.45;;
76591;SDS011;65481;47.600;19.682;2023-04-12T06:56:27;3.15;;;2.50;;
76591;SDS011;65481;47.600;19.682;2023-04-12T07:01:27;3.63;;;2.20;;
76591;SDS011;65481;47.600;19.682;2023-04-12T07:06:28;3.45;;;2.00;;
76591;SDS011;65481;47.600;19.682;2023-04-12T07:11:28;3.42;;;2.00;;
76591;SDS011;65481;47.600;19.682;2023-04-12T07:16:30;2.50;;;1.95;;
76591;SDS011;65481;47.600;19.682;2023-04-12T07:21:31;4.22;;;1.92;;
76591;SDS011;65481;47.600;19.682;2023-04-12T07:26:32;2.22;;;1.80;;
76591;SDS011;65481;47.600;19.682;2023-04-12T07:31:32;1.98;;;1.70;;
76591;SDS011;65481;47.600;19.682;2023-04-12T07:36:32;2.47;;;1.90;;
76591;SDS011;65481;47.600;19.682;2023-04-12T07:41:33;2.45;;;1.92;;
76591;SDS011;65481;47.600;19.682;2023-04-12T07:46:33;3.53;;;1.70;;
76591;SDS011;65481;47.600;19.682;2023-04-12T07:51:34;3.13;;;1.90;;
76591;SDS011;65481;47.600;19.682;2023-04-12T07:56:35;2.65;;;1.73;;
76591;SDS011;65481;47.600;19.682;2023-04-12T08:01:35;2.88;;;2.10;;
76591;SDS011;65481;47.600;19.682;2023-04-12T08:06:36;2.38;;;1.83;;
76591;SDS011;65481;47.600;19.682;2023-04-12T08:11:36;3.33;;;2.00;;
76591;SDS011;65481;47.600;19.682;2023-04-12T08:16:37;2.50;;;2.10;;
76591;SDS011;65481;47.600;19.682;2023-04-12T08:21:37;2.42;;;1.80;;
76591;SDS011;65481;47.600;19.682;2023-04-12T08:26:38;3.25;;;2.10;;
76591;SDS011;65481;47.600;19.682;2023-04-12T08:31:38;1.95;;;1.55;;
76591;SDS011;65481;47.600;19.682;2023-04-12T08:36:40;3.45;;;2.10;;
76591;SDS011;65481;47.600;19.682;2023-04-12T08:41:40;4.43;;;2.00;;
76591;SDS011;65481;47.600;19.682;2023-04-12T08:46:41;2.72;;;1.67;;
76591;SDS011;65481;47.600;19.682;2023-04-12T08:51:43;3.50;;;1.85;;
76591;SDS011;65481;47.600;19.682;2023-04-12T08:56:44;2.38;;;1.85;;
76591;SDS011;65481;47.600;19.682;2023-04-12T09:01:46;2.75;;;1.85;;
76591;SDS011;65481;47.600;19.682;2023-04-12T09:06:47;2.45;;;1.70;;
76591;SDS011;65481;47.600;19.682;2023-04-12T09:11:48;2.28;;;1.50;;
76591;SDS011;65481;47.600;19.682;2023-04-12T09:16:48;1.80;;;1.67;;
76591;SDS011;65481;47.600;19.682;2023-04-12T09:21:53;2.03;;;1.40;;
76591;SDS011;65481;47.600;19.682;2023-04-12T09:27:04;2.10;;;1.80;;
76591;SDS011;65481;47.600;19.682;2023-04-12T09:32:06;2.80;;;1.75;;
76591;SDS011;65481;47.600;19.682;2023-04-12T09:37:11;2.55;;;1.50;;
76591;SDS011;65481;47.600;19.682;2023-04-12T09:42:13;3.15;;;1.65;;
76591;SDS011;65481;47.600;19.682;2023-04-12T09:47:14;2.70;;;2.10;;
76591;SDS011;65481;47.600;19.682;2023-04-12T09:52:14;3.55;;;2.28;;
76591;SDS011;65481;47.600;19.682;2023-04-12T09:57:18;2.67;;;2.40;;
76591;SDS011;65481;47.600;19.682;2023-04-12T10:02:25;3.03;;;2.67;;
76591;SDS011;65481;47.600;19.682;2023-04-12T10:07:27;5.25;;;2.90;;
76591;SDS011;65481;47.600;19.682;2023-04-12T10:12:27;4.30;;;2.63;;
76591;SDS011;65481;47.600;19.682;2023-04-12T10:17:28;4.55;;;2.55;;
76591;SDS011;65481;47.600;19.682;2023-04-12T10:22:29;3.05;;;1.90;;
76591;SDS011;65481;47.600;19.682;2023-04-12T10:27:29;2.95;;;2.40;;
76591;SDS011;65481;47.600;19.682;2023-04-12T10:32:31;2.50;;;2.30;;
76591;SDS011;65481;47.600;19.682;2023-04-12T10:48:37;2.90;;;2.08;;
76591;SDS011;65481;47.600;19.682;2023-04-12T10:59:17;2.95;;;2.08;;
76591;SDS011;65481;47.600;19.682;2023-04-12T11:04:21;2.38;;;1.88;;
76591;SDS011;65481;47.600;19.682;2023-04-12T11:14:45;1.60;;;1.50;;
76591;SDS011;65481;47.600;19.682;2023-04-12T11:19:51;3.17;;;1.48;;
76591;SDS011;65481;47.600;19.682;2023-04-12T11:24:55;1.70;;;1.60;;
76591;SDS011;65481;47.600;19.682;2023-04-12T11:29:58;3.40;;;1.50;;
76591;SDS011;65481;47.600;19.682;2023-04-12T11:35:00;1.98;;;1.40;;
76591;SDS011;65481;47.600;19.682;2023-04-12T11:40:02;1.30;;;1.20;;
76591;SDS011;65481;47.600;19.682;2023-04-12T11:45:04;2.63;;;1.50;;
76591;SDS011;65481;47.600;19.682;2023-04-12T11:50:06;3.50;;;1.40;;
76591;SDS011;65481;47.600;19.682;2023-04-12T11:55:07;2.03;;;1.42;;
76591;SDS011;65481;47.600;19.682;2023-04-12T12:00:10;4.32;;;1.80;;
76591;SDS011;65481;47.600;19.682;2023-04-12T12:05:11;1.80;;;1.40;;
76591;SDS011;65481;47.600;19.682;2023-04-12T12:10:11;2.40;;;1.27;;
76591;SDS011;65481;47.600;19.682;2023-04-12T12:15:13;1.75;;;1.45;;
76591;SDS011;65481;47.600;19.682;2023-04-12T12:20:20;1.63;;;1.40;;
76591;SDS011;65481;47.600;19.682;2023-04-12T12:25:23;2.45;;;1.40;;
76591;SDS011;65481;47.600;19.682;2023-04-12T12:30:23;2.53;;;1.50;;
76591;SDS011;65481;47.600;19.682;2023-04-12T12:35:24;1.40;;;1.10;;
76591;SDS011;65481;47.600;19.682;2023-04-12T12:40:29;3.33;;;1.40;;
76591;SDS011;65481;47.600;19.682;2023-04-12T12:45:31;1.60;;;1.40;;
76591;SDS011;65481;47.600;19.682;2023-04-12T12:50:33;4.00;;;1.45;;
76591;SDS011;65481;47.600;19.682;2023-04-12T12:55:35;2.20;;;1.30;;
76591;SDS011;65481;47.600;19.682;2023-04-12T13:00:36;2.55;;;1.25;;
76591;SDS011;65481;47.600;19.682;2023-04-12T13:05:36;1.38;;;0.90;;
76591;SDS011;65481;47.600;19.682;2023-04-12T13:10:37;2.13;;;1.37;;
76591;SDS011;65481;47.600;19.682;2023-04-12T13:15:37;1.83;;;1.10;;
76591;SDS011;65481;47.600;19.682;2023-04-12T13:20:38;1.58;;;1.05;;
76591;SDS011;65481;47.600;19.682;2023-04-12T13:25:38;2.05;;;1.40;;
76591;SDS011;65481;47.600;19.682;2023-04-12T13:30:39;2.13;;;1.13;;
76591;SDS011;65481;47.600;19.682;2023-04-12T13:35:39;3.13;;;1.30;;
76591;SDS011;65481;47.600;19.682;2023-04-12T13:40:40;1.67;;;1.20;;
76591;SDS011;65481;47.600;19.682;2023-04-12T13:45:40;1.70;;;1.10;;
76591;SDS011;65481;47.600;19.682;2023-04-12T13:50:41;2.35;;;1.20;;
76591;SDS011;65481;47.600;19.682;2023-04-12T13:55:41;2.42;;;1.20;;
76591;SDS011;65481;47.600;19.682;2023-04-12T14:00:42;1.77;;;1.50;;
76591;SDS011;65481;47.600;19.682;2023-04-12T14:05:42;2.22;;;1.20;;
76591;SDS011;65481;47.600;19.682;2023-04-12T14:10:43;3.90;;;1.42;;
76591;SDS011;65481;47.600;19.682;2023-04-12T14:15:43;3.20;;;1.50;;
76591;SDS011;65481;47.600;19.682;2023-04-12T14:20:46;1.92;;;1.40;;
76591;SDS011;65481;47.600;19.682;2023-04-12T14:25:51;7.55;;;1.70;;
76591;SDS011;65481;47.600;19.682;2023-04-12T14:30:52;4.25;;;1.60;;
76591;SDS011;65481;47.600;19.682;2023-04-12T14:35:53;3.33;;;1.25;;
76591;SDS011;65481;47.600;19.682;2023-04-12T14:40:55;2.33;;;1.50;;
76591;SDS011;65481;47.600;19.682;2023-04-12T14:45:56;7.95;;;1.70;;
76591;SDS011;65481;47.600;19.682;2023-04-12T14:50:56;2.67;;;1.23;;
76591;SDS011;65481;47.600;19.682;2023-04-12T14:55:56;1.83;;;1.30;;
76591;SDS011;65481;47.600;19.682;2023-04-12T15:00:59;1.50;;;1.20;;
76591;SDS011;65481;47.600;19.682;2023-04-12T15:06:00;2.20;;;1.50;;
76591;SDS011;65481;47.600;19.682;2023-04-12T15:11:00;2.45;;;1.42;;
76591;SDS011;65481;47.600;19.682;2023-04-12T15:16:01;2.08;;;1.60;;
76591;SDS011;65481;47.600;19.682;2023-04-12T15:21:04;3.50;;;1.40;;
76591;SDS011;65481;47.600;19.682;2023-04-12T15:26:07;3.53;;;1.70;;
76591;SDS011;65481;47.600;19.682;2023-04-12T15:31:11;13.13;;;2.40;;
76591;SDS011;65481;47.600;19.682;2023-04-12T15:36:11;114.25;;;9.95;;
76591;SDS011;65481;47.600;19.682;2023-04-12T15:41:15;31.65;;;2.97;;
76591;SDS011;65481;47.600;19.682;2023-04-12T15:46:16;3.33;;;1.50;;
76591;SDS011;65481;47.600;19.682;2023-04-12T15:51:17;3.75;;;1.27;;
76591;SDS011;65481;47.600;19.682;2023-04-12T15:56:17;2.00;;;1.33;;
76591;SDS011;65481;47.600;19.682;2023-04-12T16:01:23;2.20;;;1.27;;
76591;SDS011;65481;47.600;19.682;2023-04-12T16:06:24;2.50;;;1.40;;
76591;SDS011;65481;47.600;19.682;2023-04-12T16:11:24;3.58;;;1.40;;
76591;SDS011;65481;47.600;19.682;2023-04-12T16:16:25;2.60;;;1.50;;
76591;SDS011;65481;47.600;19.682;2023-04-12T16:21:26;2.63;;;1.80;;
76591;SDS011;65481;47.600;19.682;2023-04-12T16:26:26;2.53;;;1.42;;
76591;SDS011;65481;47.600;19.682;2023-04-12T16:31:27;2.40;;;1.48;;
76591;SDS011;65481;47.600;19.682;2023-04-12T16:36:28;2.13;;;1.50;;
76591;SDS011;65481;47.600;19.682;2023-04-12T16:41:30;2.72;;;1.45;;
76591;SDS011;65481;47.600;19.682;2023-04-12T16:46:31;1.63;;;1.20;;
76591;SDS011;65481;47.600;19.682;2023-04-12T16:51:32;2.92;;;1.30;;
76591;SDS011;65481;47.600;19.682;2023-04-12T16:56:33;3.85;;;1.35;;
76591;SDS011;65481;47.600;19.682;2023-04-12T17:01:33;1.85;;;1.20;;
76591;SDS011;65481;47.600;19.682;2023-04-12T17:06:34;1.20;;;1.00;;
76591;SDS011;65481;47.600;19.682;2023-04-12T17:11:35;1.63;;;1.10;;
76591;SDS011;65481;47.600;19.682;2023-04-12T17:16:36;2.78;;;1.20;;
76591;SDS011;65481;47.600;19.682;2023-04-12T17:21:40;3.40;;;1.65;;
76591;SDS011;65481;47.600;19.682;2023-04-12T17:26:41;4.43;;;2.22;;
76591;SDS011;65481;47.600;19.682;2023-04-12T17:31:41;6.93;;;1.77;;
76591;SDS011;65481;47.600;19.682;2023-04-12T17:36:44;5.53;;;2.47;;
76591;SDS011;65481;47.600;19.682;2023-04-12T17:41:45;3.70;;;1.77;;
76591;SDS011;65481;47.600;19.682;2023-04-12T17:46:46;3.17;;;1.50;;
76591;SDS011;65481;47.600;19.682;2023-04-12T17:51:47;3.33;;;1.92;;
76591;SDS011;65481;47.600;19.682;2023-04-12T17:56:48;2.83;;;1.52;;
76591;SDS011;65481;47.600;19.682;2023-04-12T18:01:50;2.60;;;1.42;;
76591;SDS011;65481;47.600;19.682;2023-04-12T18:06:50;2.53;;;1.60;;
76591;SDS011;65481;47.600;19.682;2023-04-12T18:11:52;1.40;;;1.05;;
76591;SDS011;65481;47.600;19.682;2023-04-12T18:16:53;2.25;;;1.40;;
76591;SDS011;65481;47.600;19.682;2023-04-12T18:21:53;3.50;;;1.98;;
76591;SDS011;65481;47.600;19.682;2023-04-12T18:26:54;4.80;;;1.80;;
76591;SDS011;65481;47.600;19.682;2023-04-12T18:31:56;3.95;;;1.60;;
76591;SDS011;65481;47.600;19.682;2023-04-12T18:36:56;3.70;;;1.40;;
76591;SDS011;65481;47.600;19.682;2023-04-12T18:41:59;2.58;;;1.60;;
76591;SDS011;65481;47.600;19.682;2023-04-12T18:47:00;2.80;;;1.80;;
76591;SDS011;65481;47.600;19.682;2023-04-12T18:52:02;1.98;;;1.60;;
76591;SDS011;65481;47.600;19.682;2023-04-12T18:57:03;3.55;;;1.70;;
76591;SDS011;65481;47.600;19.682;2023-04-12T19:02:05;1.88;;;1.65;;
76591;SDS011;65481;47.600;19.682;2023-04-12T19:07:06;5.75;;;3.05;;
76591;SDS011;65481;47.600;19.682;2023-04-12T19:12:07;12.32;;;4.70;;
76591;SDS011;65481;47.600;19.682;2023-04-12T19:17:08;10.82;;;4.07;;
76591;SDS011;65481;47.600;19.682;2023-04-12T19:22:09;8.38;;;3.08;;
76591;SDS011;65481;47.600;19.682;2023-04-12T19:27:10;3.38;;;2.22;;
76591;SDS011;65481;47.600;19.682;2023-04-12T19:32:11;6.15;;;2.25;;
76591;SDS011;65481;47.600;19.682;2023-04-12T19:37:11;3.38;;;2.08;;
76591;SDS011;65481;47.600;19.682;2023-04-12T19:42:12;5.47;;;3.20;;
76591;SDS011;65481;47.600;19.682;2023-04-12T19:47:17;8.77;;;5.38;;
76591;SDS011;65481;47.600;19.682;2023-04-12T19:52:18;10.45;;;6.05;;
76591;SDS011;65481;47.600;19.682;2023-04-12T19:57:21;12.32;;;6.35;;
76591;SDS011;65481;47.600;19.682;2023-04-12T20:02:23;9.23;;;5.93;;
76591;SDS011;65481;47.600;19.682;2023-04-12T20:07:23;17.83;;;9.27;;
76591;SDS011;65481;47.600;19.682;2023-04-12T20:12:29;24.88;;;14.52;;
76591;SDS011;65481;47.600;19.682;2023-04-12T20:17:34;25.88;;;15.63;;
76591;SDS011;65481;47.600;19.682;2023-04-12T20:22:36;12.70;;;7.13;;
76591;SDS011;65481;47.600;19.682;2023-04-12T20:27:37;4.03;;;2.75;;
76591;SDS011;65481;47.600;19.682;2023-04-12T20:32:38;3.15;;;2.40;;
76591;SDS011;65481;47.600;19.682;2023-04-12T20:37:38;8.38;;;3.92;;
76591;SDS011;65481;47.600;19.682;2023-04-12T20:42:39;9.68;;;5.65;;
76591;SDS011;65481;47.600;19.682;2023-04-12T20:47:41;10.15;;;6.45;;
76591;SDS011;65481;47.600;19.682;2023-04-12T20:52:42;17.83;;;8.98;;
76591;SDS011;65481;47.600;19.682;2023-04-12T20:57:42;18.42;;;9.52;;
76591;SDS011;65481;47.600;19.682;2023-04-12T21:02:44;11.68;;;7.18;;
76591;SDS011;65481;47.600;19.682;2023-04-12T21:07:45;14.32;;;7.65;;
76591;SDS011;65481;47.600;19.682;2023-04-12T21:12:45;13.43;;;8.82;;
76591;SDS011;65481;47.600;19.682;2023-04-12T21:17:46;10.48;;;7.30;;
76591;SDS011;65481;47.600;19.682;2023-04-12T21:22:49;19.05;;;11.00;;
76591;SDS011;65481;47.600;19.682;2023-04-12T21:27:50;16.98;;;10.43;;
76591;SDS011;65481;47.600;19.682;2023-04-12T21:32:52;16.38;;;9.75;;
76591;SDS011;65481;47.600;19.682;2023-04-12T21:37:52;11.02;;;7.15;;
76591;SDS011;65481;47.600;19.682;2023-04-12T21:42:53;9.63;;;6.50;;
76591;SDS011;65481;47.600;19.682;2023-04-12T21:47:53;9.25;;;5.88;;
76591;SDS011;65481;47.600;19.682;2023-04-12T21:52:54;15.85;;;8.25;;
76591;SDS011;65481;47.600;19.682;2023-04-12T21:57:55;11.75;;;8.30;;
76591;SDS011;65481;47.600;19.682;2023-04-12T22:02:55;17.30;;;8.98;;
76591;SDS011;65481;47.600;19.682;2023-04-12T22:07:56;17.00;;;9.27;;
76591;SDS011;65481;47.600;19.682;2023-04-12T22:12:56;13.38;;;8.32;;
76591;SDS011;65481;47.600;19.682;2023-04-12T22:17:57;12.20;;;7.50;;
76591;SDS011;65481;47.600;19.682;2023-04-12T22:22:58;15.55;;;8.63;;
76591;SDS011;65481;47.600;19.682;2023-04-12T22:27:58;14.25;;;9.20;;
76591;SDS011;65481;47.600;19.682;2023-04-12T22:33:00;12.13;;;7.68;;
76591;SDS011;65481;47.600;19.682;2023-04-12T22:38:00;17.33;;;9.38;;
76591;SDS011;65481;47.600;19.682;2023-04-12T22:43:01;12.50;;;8.32;;
76591;SDS011;65481;47.600;19.682;2023-04-12T22:48:02;15.77;;;9.38;;
76591;SDS011;65481;47.600;19.682;2023-04-12T22:53:03;13.88;;;8.68;;
76591;SDS011;65481;47.600;19.682;2023-04-12T22:58:03;13.85;;;8.77;;
76591;SDS011;65481;47.600;19.682;2023-04-12T23:03:05;17.60;;;9.40;;
76591;SDS011;65481;47.600;19.682;2023-04-12T23:08:09;14.55;;;8.27;;
76591;SDS011;65481;47.600;19.682;2023-04-12T23:13:12;14.57;;;8.38;;
76591;SDS011;65481;47.600;19.682;2023-04-12T23:18:12;11.68;;;7.35;;
76591;SDS011;65481;47.600;19.682;2023-04-12T23:23:13;10.82;;;7.43;;
76591;SDS011;65481;47.600;19.682;2023-04-12T23:28:14;13.30;;;8.70;;
76591;SDS011;65481;47.600;19.682;2023-04-12T23:33:17;11.23;;;7.28;;
76591;SDS011;65481;47.600;19.682;2023-04-12T23:38:19;10.85;;;7.22;;
76591;SDS011;65481;47.600;19.682;2023-04-12T23:43:25;12.52;;;6.60;;
76591;SDS011;65481;47.600;19.682;2023-04-12T23:48:26;12.32;;;8.07;;
76591;SDS011;65481;47.600;19.682;2023-04-12T23:53:27;12.35;;;7.50;;
76591;SDS011;65481;47.600;19.682;2023-04-12T23:58:27;9.88;;;6.90;;
